KRME

Griffiss International Airport

Rome, New York, USA
METAR KRME 182153Z 25006KT 10SM FEW035 FEW080 24/23 A2978 RMK AO2 RAE37 SLP080 P0007 T02440228
Observed Flight Rules
Jun-18 @ 21:53 UTC (50 minutes ago) Visual Flight Rules
Wind Visibility Clouds
250° at 6 knots 10 miles
  • Few at 3,500' AGL
  • Few at 8,000' AGL
Temperatures Readings Precipitation
Current 24°C / 75°F
Dewpoint 23°C / 73°F
Humidity 94%
Altimeter 29.78" Hg
Pressure 1008 hPa
Elevation 154
Current Rain 0.07
METAR KRME 182153Z 25006KT 10SM FEW035 FEW080 24/23 A2978 RMK AO2 RAE37 SLP080 P0007 T02440228
Observed Flight Rules
Jun-18 @ 21:53 UTC
(50 minutes ago)
VFR
Wind Visibility
250° at 6 knots 10 miles
Clouds
  • Few at 3,500' AGL
  • Few at 8,000' AGL
Temperature Dewpoint
24°C / 75°F 23°C / 73°F
Humidity Altimeter Pressure
94% 29.78" Hg 1008 hPa
Current Rain
0.07